createdAt,value
2022-10-27T00:01:18.766Z,27.35
2022-10-27T00:03:45.656Z,25.50
2022-10-27T00:06:12.464Z,25.60
2022-10-27T00:08:39.348Z,25.23
2022-10-27T00:11:07.194Z,25.70
2022-10-27T00:13:34.836Z,23.73
2022-10-27T00:16:05.976Z,23.55
2022-10-27T00:18:33.220Z,22.88
2022-10-27T00:21:13.207Z,23.38
2022-10-27T00:23:40.200Z,21.88
2022-10-27T00:26:08.079Z,22.42
2022-10-27T00:28:35.156Z,21.80
2022-10-27T00:31:03.715Z,23.13
2022-10-27T00:33:30.722Z,22.05
2022-10-27T00:35:57.697Z,20.65
2022-10-27T00:38:24.767Z,22.02
2022-10-27T00:40:51.643Z,22.02
2022-10-27T00:43:24.597Z,20.10
2022-10-27T00:45:51.440Z,20.73
2022-10-27T00:48:18.318Z,20.60
2022-10-27T00:50:45.878Z,19.23
2022-10-27T00:53:13.121Z,19.08
2022-10-27T00:55:41.038Z,19.02
2022-10-27T00:58:13.138Z,19.35
2022-10-27T01:00:41.176Z,18.60
2022-10-27T01:03:08.426Z,18.75
2022-10-27T01:05:35.474Z,19.58
2022-10-27T01:08:03.709Z,19.13
2022-10-27T01:10:30.502Z,19.27
2022-10-27T01:12:57.656Z,18.80
2022-10-27T01:15:31.351Z,18.98
2022-10-27T01:18:02.140Z,18.40
2022-10-27T01:20:42.725Z,18.65
2022-10-27T01:23:23.401Z,18.50
2022-10-27T01:26:03.818Z,19.20
2022-10-27T01:28:33.444Z,18.38
2022-10-27T01:31:05.970Z,17.42
2022-10-27T01:33:36.732Z,16.77
2022-10-27T01:36:05.029Z,17.40
2022-10-27T01:38:33.123Z,16.13
2022-10-27T01:41:08.183Z,16.27
2022-10-27T01:43:35.463Z,15.75
2022-10-27T01:46:03.995Z,16.08
2022-10-27T01:48:33.005Z,16.00
2022-10-27T01:51:02.196Z,16.65
2022-10-27T01:53:34.428Z,16.85
2022-10-27T01:56:11.832Z,17.77
2022-10-27T01:58:50.599Z,17.00
2022-10-27T02:03:57.822Z,16.67
2022-10-27T02:06:33.551Z,16.10
2022-10-27T02:09:06.814Z,15.32
2022-10-27T02:11:34.160Z,17.45
2022-10-27T02:14:00.888Z,17.73
2022-10-27T02:16:31.987Z,16.98
2022-10-27T02:19:01.550Z,17.55
2022-10-27T02:21:29.450Z,17.40
2022-10-27T02:23:56.323Z,17.67
2022-10-27T02:26:29.143Z,17.67
2022-10-27T02:28:55.848Z,17.48
2022-10-27T02:31:25.098Z,18.65
2022-10-27T02:33:52.834Z,19.08
2022-10-27T02:36:19.722Z,18.83
2022-10-27T02:38:46.844Z,19.50
2022-10-27T02:41:13.800Z,18.08
2022-10-27T02:43:40.679Z,18.83
2022-10-27T02:46:07.368Z,20.45
2022-10-27T02:48:34.338Z,20.08
2022-10-27T02:51:01.404Z,19.92
2022-10-27T02:53:28.258Z,19.13
2022-10-27T02:55:55.033Z,19.95
2022-10-27T02:58:21.739Z,18.33
2022-10-27T03:00:48.513Z,18.75
2022-10-27T03:03:15.252Z,19.15
2022-10-27T03:05:45.517Z,18.75
2022-10-27T03:08:15.205Z,17.58
2022-10-27T03:10:42.077Z,17.05
2022-10-27T03:13:09.017Z,18.05
2022-10-27T03:15:36.677Z,17.02
2022-10-27T03:18:04.036Z,16.05
2022-10-27T03:20:30.939Z,14.43
2022-10-27T03:22:57.869Z,13.45
2022-10-27T03:25:24.644Z,14.70
2022-10-27T03:27:51.333Z,14.00
2022-10-27T03:30:18.236Z,13.75
2022-10-27T03:32:46.552Z,19.20
2022-10-27T03:35:15.291Z,21.00
2022-10-27T03:37:42.299Z,21.13
2022-10-27T03:40:10.755Z,18.02
2022-10-27T03:42:41.835Z,19.50
2022-10-27T03:45:09.804Z,19.60
2022-10-27T03:47:36.645Z,20.20
2022-10-27T03:50:04.003Z,21.75
2022-10-27T03:52:33.153Z,22.77
2022-10-27T03:55:00.394Z,22.58
2022-10-27T03:57:27.426Z,24.52
2022-10-27T03:59:57.275Z,24.63
2022-10-27T04:02:24.522Z,23.90
2022-10-27T04:04:51.420Z,24.73
2022-10-27T04:07:18.200Z,23.70
2022-10-27T04:09:46.712Z,24.55
2022-10-27T04:12:14.286Z,23.73
2022-10-27T04:14:41.109Z,23.52
2022-10-27T04:17:07.875Z,21.00
2022-10-27T04:19:34.656Z,19.98
2022-10-27T04:22:03.283Z,20.00
2022-10-27T04:24:30.050Z,19.35
2022-10-27T04:26:56.990Z,18.15
2022-10-27T04:29:23.898Z,18.95
2022-10-27T04:31:50.648Z,20.35
2022-10-27T04:34:17.550Z,21.02
2022-10-27T04:36:44.452Z,21.02
2022-10-27T04:39:15.248Z,23.27
2022-10-27T04:41:42.534Z,20.95
2022-10-27T04:44:09.681Z,21.23
2022-10-27T04:46:36.542Z,20.42
2022-10-27T04:49:03.398Z,20.42
2022-10-27T04:51:30.511Z,20.55
2022-10-27T04:53:57.269Z,23.02
2022-10-27T04:56:24.241Z,22.25
2022-10-27T04:58:51.143Z,21.42
2022-10-27T05:01:18.343Z,21.00
2022-10-27T05:03:47.661Z,21.73
2022-10-27T05:06:14.560Z,21.08
2022-10-27T05:08:41.622Z,20.92
2022-10-27T05:11:13.880Z,22.30
2022-10-27T05:13:43.766Z,21.30
2022-10-27T05:16:10.587Z,21.75
2022-10-27T05:18:37.549Z,19.45
2022-10-27T05:21:04.560Z,17.90
2022-10-27T05:23:31.591Z,18.77
2022-10-27T05:25:58.340Z,18.77
2022-10-27T05:28:25.263Z,18.77
2022-10-27T05:30:56.402Z,21.13
2022-10-27T05:33:23.469Z,22.35
2022-10-27T05:35:51.145Z,21.08
2022-10-27T05:38:18.165Z,23.52
2022-10-27T05:40:45.119Z,25.38
2022-10-27T05:43:12.029Z,24.52
2022-10-27T05:45:39.053Z,25.40
2022-10-27T05:48:07.295Z,24.23
2022-10-27T05:50:35.098Z,24.10
2022-10-27T05:53:05.703Z,22.25
2022-10-27T05:55:34.002Z,22.73
2022-10-27T05:58:02.326Z,20.90
2022-10-27T06:00:37.103Z,19.35
2022-10-27T06:05:31.963Z,19.20
2022-10-27T06:07:59.337Z,22.00
2022-10-27T06:10:26.170Z,20.70
2022-10-27T06:12:52.989Z,22.70
2022-10-27T06:15:20.106Z,22.83
2022-10-27T06:17:52.238Z,23.30
2022-10-27T06:20:19.523Z,25.27
2022-10-27T06:22:47.235Z,79.07
2022-10-27T06:25:14.079Z,45.08
2022-10-27T06:27:41.067Z,26.50
2022-10-27T06:30:08.588Z,26.05
2022-10-27T06:32:40.586Z,22.92
2022-10-27T06:35:08.519Z,34.35
2022-10-27T06:37:43.453Z,22.55
2022-10-27T06:40:12.701Z,38.33
2022-10-27T06:42:49.426Z,34.78
2022-10-27T06:45:22.525Z,46.03
2022-10-27T06:47:56.290Z,37.17
2022-10-27T06:50:23.553Z,36.53
2022-10-27T06:52:55.691Z,39.15
2022-10-27T06:55:31.887Z,50.17
2022-10-27T06:57:58.939Z,51.85
2022-10-27T07:00:26.037Z,29.70
2022-10-27T07:02:53.160Z,21.17
2022-10-27T07:05:20.143Z,20.38
2022-10-27T07:07:47.775Z,28.10
2022-10-27T07:10:14.946Z,21.60
2022-10-27T07:12:54.319Z,20.10
2022-10-27T07:15:22.005Z,20.48
2022-10-27T07:17:52.054Z,20.10
2022-10-27T07:20:20.597Z,35.10
2022-10-27T07:22:48.724Z,21.13
2022-10-27T07:25:15.486Z,30.80
2022-10-27T07:27:54.729Z,66.68
2022-10-27T07:30:26.201Z,30.38
2022-10-27T07:32:56.334Z,30.08
2022-10-27T07:35:35.557Z,59.65
2022-10-27T07:38:11.611Z,21.17
2022-10-27T07:40:41.851Z,20.70
2022-10-27T07:43:10.273Z,20.85
2022-10-27T07:45:47.648Z,21.52
2022-10-27T07:48:15.346Z,19.73
2022-10-27T07:50:43.017Z,21.48
2022-10-27T07:53:10.080Z,24.55
2022-10-27T07:58:53.986Z,22.35
2022-10-27T08:01:21.275Z,22.38
2022-10-27T08:03:52.166Z,22.10
2022-10-27T08:06:19.672Z,21.90
2022-10-27T08:08:46.311Z,22.25
2022-10-27T08:11:12.908Z,22.20
2022-10-27T08:13:39.534Z,23.55
2022-10-27T08:16:06.671Z,22.13
2022-10-27T08:18:33.349Z,20.35
2022-10-27T08:21:00.009Z,19.63
2022-10-27T08:23:26.707Z,20.52
2022-10-27T08:25:53.999Z,21.38
2022-10-27T08:28:20.814Z,22.13
2022-10-27T08:30:52.402Z,21.48
2022-10-27T08:33:19.997Z,22.73
2022-10-27T08:35:46.709Z,21.67
2022-10-27T08:38:15.083Z,21.50
2022-10-27T08:40:57.410Z,21.70
2022-10-27T08:43:39.948Z,22.95
2022-10-27T08:46:13.340Z,22.13
2022-10-27T08:48:40.632Z,21.63
2022-10-27T08:51:12.754Z,21.67
2022-10-27T08:53:39.798Z,27.77
2022-10-27T08:56:09.763Z,23.17
2022-10-27T08:58:40.969Z,21.00
2022-10-27T09:01:21.857Z,28.40
2022-10-27T09:03:54.219Z,20.67
2022-10-27T09:06:24.686Z,17.70
2022-10-27T09:08:53.960Z,18.88
2022-10-27T09:11:30.933Z,28.13
2022-10-27T09:14:10.496Z,28.70
2022-10-27T09:16:37.601Z,20.83
2022-10-27T09:19:06.852Z,35.88
2022-10-27T09:21:34.709Z,17.85
2022-10-27T09:24:06.971Z,17.58
2022-10-27T09:26:33.911Z,16.35
2022-10-27T09:29:02.548Z,16.42
2022-10-27T09:31:36.718Z,16.60
2022-10-27T09:36:29.888Z,20.15
2022-10-27T09:38:56.499Z,18.08
2022-10-27T09:41:23.132Z,14.85
2022-10-27T09:43:52.765Z,14.52
2022-10-27T09:46:25.603Z,14.88
2022-10-27T09:48:54.757Z,16.50
2022-10-27T09:51:30.164Z,19.75
2022-10-27T09:53:56.750Z,14.52
2022-10-27T09:56:27.836Z,15.32
2022-10-27T09:59:00.890Z,13.65
2022-10-27T10:01:28.532Z,12.63
2022-10-27T10:03:56.423Z,13.32
2022-10-27T10:06:25.105Z,14.43
2022-10-27T10:08:51.789Z,14.48
2022-10-27T10:11:20.656Z,17.38
2022-10-27T10:13:57.952Z,11.18
2022-10-27T10:16:24.776Z,10.68
2022-10-27T10:19:00.626Z,12.43
2022-10-27T10:21:27.279Z,10.32
2022-10-27T10:23:55.305Z,9.93
2022-10-27T10:26:23.751Z,12.57
2022-10-27T10:28:55.105Z,12.68
2022-10-27T10:31:24.162Z,13.48
2022-10-27T10:33:51.153Z,9.90
2022-10-27T10:36:31.909Z,10.77
2022-10-27T10:39:00.062Z,11.95
2022-10-27T10:41:27.530Z,11.95
2022-10-27T10:44:20.547Z,12.25
2022-10-27T10:46:54.094Z,10.88
2022-10-27T10:49:25.147Z,11.00
2022-10-27T10:52:02.035Z,15.00
2022-10-27T10:54:28.657Z,14.10
2022-10-27T10:56:55.740Z,14.07
2022-10-27T10:59:33.252Z,15.90
2022-10-27T11:02:13.759Z,17.70
2022-10-27T11:04:53.031Z,15.45
2022-10-27T11:07:23.131Z,13.55
2022-10-27T11:09:53.383Z,14.05
2022-10-27T11:12:40.121Z,12.02
2022-10-27T11:15:20.586Z,12.90
2022-10-27T11:17:49.460Z,10.38
2022-10-27T11:20:43.137Z,12.00
2022-10-27T11:23:23.558Z,12.45
2022-10-27T11:25:50.257Z,10.73
2022-10-27T11:28:26.884Z,10.52
2022-10-27T11:30:59.499Z,10.13
2022-10-27T11:33:42.153Z,9.75
2022-10-27T11:36:11.779Z,8.73
2022-10-27T11:38:47.076Z,10.13
2022-10-27T11:41:27.642Z,9.43
2022-10-27T11:44:10.063Z,8.60
2022-10-27T11:47:00.829Z,8.70
2022-10-27T11:49:41.302Z,9.60
2022-10-27T11:52:14.680Z,7.30
2022-10-27T11:54:41.373Z,7.68
2022-10-27T12:00:19.427Z,7.60
2022-10-27T12:03:05.508Z,7.25
2022-10-27T12:05:58.253Z,8.15
2022-10-27T12:08:35.124Z,7.40
2022-10-27T12:11:07.436Z,7.85
2022-10-27T12:16:20.158Z,8.32
2022-10-27T12:19:00.708Z,9.43
2022-10-27T12:21:29.596Z,7.85
2022-10-27T12:24:02.099Z,8.00
2022-10-27T12:26:37.902Z,9.07
2022-10-27T12:29:05.467Z,8.25
2022-10-27T12:31:34.564Z,8.13
2022-10-27T12:34:02.176Z,11.40
2022-10-27T12:36:36.896Z,11.80
2022-10-27T12:39:12.270Z,7.88
2022-10-27T12:41:45.005Z,8.13
2022-10-27T12:44:17.427Z,10.20
2022-10-27T12:46:52.698Z,7.63
2022-10-27T12:49:22.282Z,8.30
2022-10-27T12:52:09.028Z,7.47
2022-10-27T12:54:50.880Z,7.82
2022-10-27T12:57:20.654Z,8.43
2022-10-27T13:00:01.225Z,8.35
2022-10-27T13:02:30.848Z,8.40
2022-10-27T13:05:11.611Z,8.18
2022-10-27T13:08:02.457Z,13.43
2022-10-27T13:10:40.520Z,10.43
2022-10-27T13:13:08.340Z,8.18
2022-10-27T13:15:46.863Z,7.93
2022-10-27T13:18:27.339Z,8.57
2022-10-27T13:20:59.894Z,9.02
2022-10-27T13:23:49.482Z,8.30
2022-10-27T13:26:16.067Z,7.88
2022-10-27T13:28:51.233Z,15.38
2022-10-27T13:31:22.289Z,9.20
2022-10-27T13:34:09.187Z,8.25
2022-10-27T13:36:36.629Z,8.35
2022-10-27T13:39:17.204Z,8.75
2022-10-27T13:41:53.071Z,8.00
2022-10-27T13:44:29.790Z,8.20
2022-10-27T13:47:05.975Z,7.25
2022-10-27T13:49:38.739Z,7.30
2022-10-27T13:52:20.619Z,6.90
2022-10-27T13:55:02.151Z,8.35
2022-10-27T13:57:42.820Z,7.65
2022-10-27T14:00:15.139Z,7.18
2022-10-27T14:03:05.202Z,6.95
2022-10-27T14:05:33.585Z,8.40
2022-10-27T14:08:01.138Z,8.00
2022-10-27T14:10:28.296Z,9.15
2022-10-27T14:12:55.262Z,8.95
2022-10-27T14:15:32.871Z,7.63
2022-10-27T14:17:59.922Z,8.95
2022-10-27T14:20:30.787Z,9.20
2022-10-27T14:23:08.074Z,10.40
2022-10-27T14:25:34.776Z,13.10
2022-10-27T14:28:07.108Z,36.95
2022-10-27T14:30:34.313Z,60.95
2022-10-27T14:33:14.731Z,36.15
2022-10-27T14:35:41.745Z,38.90
2022-10-27T14:38:15.592Z,39.72
2022-10-27T14:40:42.346Z,36.75
2022-10-27T14:43:20.772Z,26.73
2022-10-27T14:45:52.619Z,27.00
2022-10-27T14:48:27.924Z,26.25
2022-10-27T14:50:55.093Z,24.10
2022-10-27T14:53:39.717Z,21.80
2022-10-27T14:56:25.983Z,18.83
2022-10-27T14:59:03.149Z,16.65
2022-10-27T15:01:35.288Z,17.75
2022-10-27T15:04:16.302Z,17.65
2022-10-27T15:06:44.749Z,18.38
2022-10-27T15:09:34.559Z,26.05
2022-10-27T15:12:21.519Z,45.03
2022-10-27T15:14:48.401Z,39.17
2022-10-27T15:17:15.787Z,38.50
2022-10-27T15:19:52.618Z,37.33
2022-10-27T15:22:19.569Z,45.85
2022-10-27T15:24:46.353Z,54.55
2022-10-27T15:27:13.251Z,67.75
2022-10-27T15:29:41.670Z,65.15
2022-10-27T15:32:18.649Z,60.75
2022-10-27T15:34:45.559Z,50.13
2022-10-27T15:37:35.229Z,43.03
2022-10-27T15:40:16.111Z,41.05
2022-10-27T15:42:42.663Z,40.05
2022-10-27T15:45:18.480Z,43.45
2022-10-27T15:47:48.871Z,42.65
2022-10-27T15:50:21.435Z,40.38
2022-10-27T15:52:48.239Z,41.55
2022-10-27T15:55:22.148Z,39.42
2022-10-27T15:57:48.875Z,40.40
2022-10-27T16:00:15.497Z,40.72
2022-10-27T16:03:02.591Z,46.90
2022-10-27T16:05:29.449Z,43.78
2022-10-27T16:08:19.389Z,47.08
2022-10-27T16:10:49.891Z,50.58
2022-10-27T16:13:18.647Z,54.67
2022-10-27T16:15:47.132Z,53.50
2022-10-27T16:18:14.912Z,47.50
2022-10-27T16:20:44.987Z,47.55
2022-10-27T16:23:12.237Z,46.33
2022-10-27T16:25:42.517Z,47.83
2022-10-27T16:28:20.470Z,49.08
2022-10-27T16:30:47.200Z,45.50
2022-10-27T16:33:17.762Z,48.50
2022-10-27T16:35:44.839Z,50.53
2022-10-27T16:38:11.953Z,49.22
2022-10-27T16:40:41.411Z,49.53
2022-10-27T16:43:30.479Z,49.92
2022-10-27T16:45:57.102Z,55.20
2022-10-27T16:48:24.010Z,59.70
2022-10-27T16:50:51.001Z,63.05
2022-10-27T16:53:21.544Z,65.70
2022-10-27T16:56:04.000Z,64.47
2022-10-27T16:58:42.225Z,67.00
2022-10-27T17:01:32.827Z,66.03
2022-10-27T17:04:12.974Z,71.50
2022-10-27T17:06:54.681Z,73.82
2022-10-27T17:09:33.221Z,72.75
2022-10-27T17:12:04.953Z,72.05
2022-10-27T17:14:34.538Z,75.78
2022-10-27T17:17:01.625Z,84.55
2022-10-27T17:19:36.949Z,88.43
2022-10-27T17:22:07.362Z,90.88
2022-10-27T17:24:37.201Z,100.15
2022-10-27T17:27:07.232Z,96.95
2022-10-27T17:32:23.888Z,106.65
2022-10-27T17:34:50.960Z,105.65
2022-10-27T17:37:18.218Z,100.30
2022-10-27T17:39:48.424Z,101.03
2022-10-27T17:44:56.578Z,97.32
2022-10-27T17:47:32.387Z,97.95
2022-10-27T17:50:06.222Z,99.60
2022-10-27T17:52:35.948Z,99.35
2022-10-27T17:55:02.923Z,97.10
2022-10-27T17:57:29.838Z,97.25
2022-10-27T18:00:04.287Z,95.38
2022-10-27T18:05:19.012Z,100.32
2022-10-27T18:07:46.095Z,97.28
2022-10-27T18:10:13.153Z,103.10
2022-10-27T18:12:43.337Z,101.50
2022-10-27T18:15:34.351Z,103.05
2022-10-27T18:17:57.396Z,99.13
2022-10-27T18:20:24.240Z,104.07
2022-10-27T18:22:53.371Z,96.45
2022-10-27T18:25:20.621Z,94.38
2022-10-27T18:27:52.223Z,93.03
2022-10-27T18:30:19.002Z,99.43
2022-10-27T18:32:46.247Z,96.25
2022-10-27T18:35:13.109Z,93.55
2022-10-27T18:37:39.949Z,94.45
2022-10-27T18:40:07.293Z,93.13
2022-10-27T18:42:37.087Z,91.15
2022-10-27T18:45:04.177Z,88.18
2022-10-27T18:47:30.891Z,93.00
2022-10-27T18:49:57.827Z,93.57
2022-10-27T18:52:24.462Z,93.78
2022-10-27T18:54:51.314Z,94.00
2022-10-27T18:57:18.298Z,93.57
2022-10-27T18:59:45.320Z,90.15
2022-10-27T19:02:16.348Z,92.72
2022-10-27T19:04:55.169Z,88.40
2022-10-27T19:07:24.420Z,90.63
2022-10-27T19:09:51.065Z,90.18
2022-10-27T19:12:17.776Z,88.97
2022-10-27T19:14:44.481Z,87.03
2022-10-27T19:17:11.195Z,85.88
2022-10-27T19:19:38.131Z,83.13
2022-10-27T19:22:05.845Z,84.70
2022-10-27T19:24:41.659Z,83.50
2022-10-27T19:27:08.565Z,83.70
2022-10-27T19:29:35.168Z,82.00
2022-10-27T19:32:02.554Z,85.20
2022-10-27T19:34:29.747Z,82.22
2022-10-27T19:36:56.837Z,83.78
2022-10-27T19:39:27.370Z,77.60
2022-10-27T19:48:27.539Z,68.05
2022-10-27T19:50:54.593Z,70.15
2022-10-27T19:53:35.234Z,72.80
2022-10-27T19:56:03.185Z,82.65
2022-10-27T19:58:30.059Z,82.32
2022-10-27T20:00:56.832Z,84.22
2022-10-27T20:03:24.024Z,80.13
2022-10-27T20:05:54.895Z,76.97
2022-10-27T20:08:22.032Z,79.20
2022-10-27T20:10:56.906Z,82.25
2022-10-27T20:13:26.568Z,86.40
2022-10-27T20:15:53.504Z,83.47
2022-10-27T20:18:21.338Z,83.25
2022-10-27T20:20:53.047Z,82.68
2022-10-27T20:23:20.050Z,85.88
2022-10-27T20:26:10.611Z,84.13
2022-10-27T20:28:43.065Z,76.50
2022-10-27T20:31:18.383Z,76.03
2022-10-27T20:33:46.531Z,75.35
2022-10-27T20:36:16.641Z,72.43
2022-10-27T20:38:44.320Z,75.75
2022-10-27T20:41:13.054Z,75.65
2022-10-27T20:43:40.613Z,71.80
2022-10-27T20:46:07.803Z,71.32
2022-10-27T20:48:35.248Z,64.80
2022-10-27T20:51:06.907Z,66.63
2022-10-27T20:53:34.899Z,68.03
2022-10-27T20:56:02.267Z,66.00
2022-10-27T20:58:34.939Z,64.35
2022-10-27T21:01:24.989Z,67.82
2022-10-27T21:03:55.720Z,63.63
2022-10-27T21:06:22.483Z,62.03
2022-10-27T21:08:52.780Z,65.82
2022-10-27T21:11:19.639Z,63.92
2022-10-27T21:13:52.988Z,61.50
2022-10-27T21:16:20.400Z,60.60
2022-10-27T21:18:54.333Z,60.17
2022-10-27T21:21:23.251Z,59.08
2022-10-27T21:23:50.710Z,57.85
2022-10-27T21:26:18.194Z,55.15
2022-10-27T21:28:49.231Z,58.67
2022-10-27T21:31:16.069Z,57.17
2022-10-27T21:33:42.914Z,54.50
2022-10-27T21:36:12.309Z,54.22
2022-10-27T21:38:40.355Z,53.67
2022-10-27T21:41:07.908Z,49.78
2022-10-27T21:43:35.704Z,50.60
2022-10-27T21:46:02.882Z,52.60
2022-10-27T21:48:32.702Z,50.60
2022-10-27T21:50:59.874Z,50.95
2022-10-27T21:53:26.809Z,49.33
2022-10-27T21:55:55.073Z,47.47
2022-10-27T21:58:22.900Z,44.83
2022-10-27T22:00:49.896Z,47.33
2022-10-27T22:03:20.551Z,46.75
2022-10-27T22:05:54.588Z,46.85
2022-10-27T22:08:22.017Z,47.35
2022-10-27T22:10:52.045Z,47.88
2022-10-27T22:13:19.762Z,44.83
2022-10-27T22:15:46.926Z,42.13
2022-10-27T22:18:13.742Z,43.05
2022-10-27T22:20:40.827Z,44.45
2022-10-27T22:23:07.814Z,42.38
2022-10-27T22:25:40.516Z,41.22
2022-10-27T22:28:07.893Z,41.47
2022-10-27T22:30:37.629Z,41.67
2022-10-27T22:33:05.332Z,42.03
2022-10-27T22:35:32.872Z,40.65
2022-10-27T22:37:59.812Z,42.70
2022-10-27T22:40:29.006Z,41.92
2022-10-27T22:42:56.063Z,44.17
2022-10-27T22:45:23.078Z,40.97
2022-10-27T22:47:50.188Z,42.22
2022-10-27T22:50:17.154Z,44.17
2022-10-27T22:52:45.559Z,46.38
2022-10-27T22:55:12.529Z,48.88
2022-10-27T22:57:39.595Z,46.65
2022-10-27T23:00:06.816Z,46.33
2022-10-27T23:02:34.041Z,46.75
2022-10-27T23:05:01.578Z,42.42
2022-10-27T23:07:28.456Z,40.63
2022-10-27T23:09:55.287Z,40.20
2022-10-27T23:12:22.615Z,38.67
2022-10-27T23:14:51.280Z,36.22
2022-10-27T23:17:18.176Z,36.42
2022-10-27T23:19:45.089Z,35.92
2022-10-27T23:22:13.931Z,35.42
2022-10-27T23:24:40.882Z,35.55
2022-10-27T23:27:07.897Z,34.38
2022-10-27T23:29:34.927Z,33.88
2022-10-27T23:32:02.136Z,33.38
2022-10-27T23:34:29.136Z,36.60
2022-10-27T23:36:56.129Z,37.85
2022-10-27T23:39:22.922Z,35.38
2022-10-27T23:41:52.593Z,38.70
2022-10-27T23:44:19.272Z,31.05
2022-10-27T23:46:46.309Z,29.50
2022-10-27T23:49:13.479Z,27.20
2022-10-27T23:51:40.199Z,26.67
2022-10-27T23:54:07.766Z,25.30
2022-10-27T23:56:40.008Z,26.67
2022-10-27T23:59:06.912Z,25.55
